Time;durP1;ratioP1;P1;durP2;ratioP2;P2;SDS_P1;SDS_P2;PMS_P1;PMS_P2;Temp;Humidity;BMP_temperature;BMP_pressure;BME280_temperature;BME280_humidity;BME280_pressure;Samples;Min_cycle;Max_cycle;Signal;HPM_P1;HPM_P2
2023/06/30 00:01:29;;;;;;;7.53;4.95;;;;;;;-146.58;100.00;69501.63;5032112;28;20025;-68
2023/06/30 00:03:55;;;;;;;9.75;4.95;;;;;;;-146.58;100.00;69501.63;5030805;28;20131;-67
2023/06/30 00:06:21;;;;;;;9.68;4.20;;;;;;;-146.58;100.00;69501.63;5032548;28;20412;-68
2023/06/30 00:08:48;;;;;;;6.85;4.43;;;;;;;-146.58;100.00;69501.63;5030384;28;20041;-68
2023/06/30 00:11:14;;;;;;;4.85;4.13;;;;;;;-146.58;100.00;69501.63;5032472;28;20652;-68
2023/06/30 00:13:39;;;;;;;11.23;6.18;;;;;;;-146.58;100.00;69501.63;5030831;28;20686;-68
2023/06/30 00:16:04;;;;;;;5.50;4.55;;;;;;;-146.58;100.00;69501.63;5031841;28;20044;-68
2023/06/30 00:18:30;;;;;;;7.90;4.95;;;;;;;-146.58;100.00;69501.63;5030787;28;20435;-68
2023/06/30 00:20:55;;;;;;;8.80;4.65;;;;;;;-146.58;100.00;69501.63;5031534;28;20029;-68
2023/06/30 00:23:21;;;;;;;11.45;4.50;;;;;;;-146.58;100.00;69501.63;5030341;28;20396;-68
2023/06/30 00:25:46;;;;;;;6.75;4.93;;;;;;;-146.58;100.00;69501.63;5030795;28;20025;-67
2023/06/30 00:28:12;;;;;;;14.43;5.60;;;;;;;-146.58;100.00;69501.63;5030420;28;20033;-67
2023/06/30 00:30:38;;;;;;;10.18;5.15;;;;;;;-146.58;100.00;69501.63;5031606;28;20026;-67
2023/06/30 00:33:03;;;;;;;10.13;5.18;;;;;;;-146.58;100.00;69501.63;5030272;28;20638;-67
2023/06/30 00:35:28;;;;;;;8.05;5.65;;;;;;;-146.58;100.00;69501.63;5031971;28;20025;-67
2023/06/30 00:37:54;;;;;;;7.28;5.03;;;;;;;-146.58;100.00;69501.63;5029563;28;20029;-67
2023/06/30 00:40:19;;;;;;;7.80;6.00;;;;;;;-146.58;100.00;69501.63;5031897;28;20033;-66
2023/06/30 00:42:44;;;;;;;6.30;5.43;;;;;;;-146.58;100.00;69501.63;5031759;28;20519;-67
2023/06/30 00:45:10;;;;;;;14.00;6.13;;;;;;;-146.58;100.00;69501.63;5029812;28;20400;-67
2023/06/30 00:47:35;;;;;;;8.10;4.93;;;;;;;-146.58;100.00;69501.63;5031581;28;20025;-66
2023/06/30 00:50:02;;;;;;;13.93;5.78;;;;;;;-146.58;100.00;69501.63;5029870;28;20042;-67
2023/06/30 00:52:27;;;;;;;10.02;5.68;;;;;;;-146.58;100.00;69501.63;5031240;28;20032;-66
2023/06/30 00:54:52;;;;;;;10.52;6.00;;;;;;;-146.58;100.00;69501.63;5029755;28;20041;-66
2023/06/30 00:57:18;;;;;;;8.85;5.47;;;;;;;-146.58;100.00;69501.63;5031217;28;20028;-66
2023/06/30 00:59:43;;;;;;;11.23;6.65;;;;;;;-146.58;100.00;69501.63;5029446;28;20037;-67
2023/06/30 01:02:11;;;;;;;11.45;4.82;;;;;;;-146.58;100.00;69501.63;5031381;28;20029;-66
2023/06/30 01:04:39;;;;;;;9.07;5.35;;;;;;;-146.58;100.00;69501.63;5029766;28;20100;-66
2023/06/30 01:07:10;;;;;;;11.05;5.82;;;;;;;-146.58;100.00;69501.63;5030594;28;20029;-67
2023/06/30 01:09:38;;;;;;;6.53;4.18;;;;;;;-146.58;100.00;69501.63;5029763;28;20106;-66
2023/06/30 01:12:04;;;;;;;21.20;5.30;;;;;;;-146.58;100.00;69501.63;5031158;28;20025;-66
2023/06/30 01:14:31;;;;;;;8.23;5.20;;;;;;;-146.58;100.00;69501.63;5029295;28;20122;-67
2023/06/30 01:16:57;;;;;;;13.57;4.95;;;;;;;-146.58;100.00;69501.63;5031020;28;20495;-67
2023/06/30 01:19:35;;;;;;;7.57;4.78;;;;;;;-146.58;100.00;69501.63;5029717;28;20052;-67
2023/06/30 01:22:08;;;;;;;;;;;;;;;-146.58;100.00;69501.63;5031197;28;20551;-67
2023/06/30 01:24:36;;;;;;;10.23;4.50;;;;;;;-146.58;100.00;69501.63;5029697;28;20479;-65
2023/06/30 01:27:02;;;;;;;10.70;6.53;;;;;;;-146.58;100.00;69501.63;5030947;28;20185;-65
2023/06/30 01:29:29;;;;;;;11.65;5.43;;;;;;;-146.58;100.00;69501.63;5029141;28;20095;-68
2023/06/30 01:31:54;;;;;;;6.95;5.38;;;;;;;-146.58;100.00;69501.63;5030701;28;20027;-68
2023/06/30 01:34:21;;;;;;;10.77;5.53;;;;;;;-146.58;100.00;69501.63;5028957;28;20046;-68
2023/06/30 01:36:47;;;;;;;10.30;4.47;;;;;;;-146.58;100.00;69501.63;5029172;28;20180;-68
2023/06/30 01:39:13;;;;;;;15.93;4.85;;;;;;;-146.58;100.00;69501.63;5029216;28;20056;-68
2023/06/30 01:41:38;;;;;;;9.73;4.30;;;;;;;-146.58;100.00;69501.63;5030943;28;20022;-68
2023/06/30 01:44:04;;;;;;;9.93;3.85;;;;;;;-146.58;100.00;69501.63;5028482;28;20148;-70
2023/06/30 01:46:29;;;;;;;28.55;5.88;;;;;;;-146.58;100.00;69501.63;5030885;28;20037;-70
2023/06/30 01:48:55;;;;;;;13.77;5.38;;;;;;;-146.58;100.00;69501.63;5028860;28;20087;-70
2023/06/30 01:51:20;;;;;;;9.90;4.00;;;;;;;-146.58;100.00;69501.63;5030671;28;20492;-70
2023/06/30 01:53:46;;;;;;;9.00;3.75;;;;;;;-146.58;100.00;69501.63;5027805;28;20401;-70
2023/06/30 01:56:11;;;;;;;7.25;2.85;;;;;;;-146.58;100.00;69501.63;5030648;28;20029;-70
2023/06/30 01:58:36;;;;;;;10.80;4.38;;;;;;;-146.58;100.00;69501.63;5027874;28;20048;-69
2023/06/30 02:01:02;;;;;;;9.38;4.47;;;;;;;-146.58;100.00;69501.63;5029919;28;20024;-69
2023/06/30 02:03:27;;;;;;;12.18;4.88;;;;;;;-146.58;100.00;69501.63;5029303;28;20449;-69
2023/06/30 02:05:52;;;;;;;9.10;4.30;;;;;;;-146.58;100.00;69501.63;5030480;28;20017;-69
2023/06/30 02:08:18;;;;;;;9.32;3.67;;;;;;;-146.58;100.00;69501.63;5030080;28;20041;-74
2023/06/30 02:10:43;;;;;;;11.48;5.38;;;;;;;-146.58;100.00;69501.63;5034551;28;20365;-69
2023/06/30 02:13:08;;;;;;;6.47;3.22;;;;;;;-146.58;100.00;69501.63;5032991;28;20021;-67
2023/06/30 02:15:34;;;;;;;13.82;5.03;;;;;;;-146.58;100.00;69501.63;5034256;28;20022;-67
2023/06/30 02:17:59;;;;;;;5.90;3.53;;;;;;;-146.58;100.00;69501.63;5032939;28;20025;-67
2023/06/30 02:20:24;;;;;;;9.43;4.00;;;;;;;-146.58;100.00;69501.63;5034614;28;20030;-67
2023/06/30 02:22:50;;;;;;;9.18;3.53;;;;;;;-146.58;100.00;69501.63;5033745;28;20464;-67
2023/06/30 02:25:15;;;;;;;8.52;3.63;;;;;;;-146.58;100.00;69501.63;5032677;28;20052;-68
2023/06/30 02:27:42;;;;;;;12.35;4.97;;;;;;;-146.58;100.00;69501.63;5033972;28;20021;-67
2023/06/30 02:30:08;;;;;;;8.98;3.42;;;;;;;-146.58;100.00;69501.63;5032026;28;20046;-67
2023/06/30 02:32:37;;;;;;;10.65;3.90;;;;;;;-146.58;100.00;69501.63;5034221;28;20554;-67
2023/06/30 02:35:06;;;;;;;16.58;6.13;;;;;;;-146.58;100.00;69501.63;5032470;28;20038;-67
2023/06/30 02:37:31;;;;;;;7.03;4.50;;;;;;;-146.58;100.00;69501.63;5033747;28;20104;-67
2023/06/30 02:39:57;;;;;;;4.63;3.58;;;;;;;-146.58;100.00;69501.63;5032505;28;20048;-67
2023/06/30 02:42:22;;;;;;;8.68;3.72;;;;;;;-146.58;100.00;69501.63;5034257;28;20072;-68
2023/06/30 02:44:47;;;;;;;6.72;3.70;;;;;;;-146.58;100.00;69501.63;5031487;28;20413;-68
2023/06/30 02:47:13;;;;;;;10.50;3.40;;;;;;;-146.58;100.00;69501.63;5034110;28;20036;-68
2023/06/30 02:49:38;;;;;;;8.70;3.40;;;;;;;-146.58;100.00;69501.63;5032391;28;20049;-67
2023/06/30 02:52:03;;;;;;;12.20;3.95;;;;;;;-146.58;100.00;69501.63;5033257;28;20032;-67
2023/06/30 02:54:29;;;;;;;7.38;3.78;;;;;;;-146.58;100.00;69501.63;5031989;28;20036;-67
2023/06/30 02:56:54;;;;;;;10.25;5.30;;;;;;;-146.58;100.00;69501.63;5032996;28;20029;-67
2023/06/30 02:59:19;;;;;;;9.20;3.67;;;;;;;-146.58;100.00;69501.63;5031889;28;20033;-67
2023/06/30 03:01:45;;;;;;;28.10;6.00;;;;;;;-146.58;100.00;69501.63;5033743;28;20029;-67
2023/06/30 03:04:10;;;;;;;10.27;3.97;;;;;;;-146.58;100.00;69501.63;5031465;28;20412;-67
2023/06/30 03:06:36;;;;;;;10.45;4.93;;;;;;;-146.58;100.00;69501.63;5033506;28;20029;-67
2023/06/30 03:09:01;;;;;;;5.22;4.45;;;;;;;-146.58;100.00;69501.63;5031743;28;20056;-67
2023/06/30 03:11:26;;;;;;;11.48;3.53;;;;;;;-146.58;100.00;69501.63;5033654;28;20065;-67
2023/06/30 03:13:52;;;;;;;7.38;5.22;;;;;;;-146.58;100.00;69501.63;5031367;28;20068;-67
2023/06/30 03:16:17;;;;;;;5.63;4.45;;;;;;;-146.58;100.00;69501.63;5033489;28;20021;-67
2023/06/30 03:18:43;;;;;;;6.65;4.10;;;;;;;-146.58;100.00;69501.63;5031578;28;20136;-66
2023/06/30 03:21:08;;;;;;;5.68;4.40;;;;;;;-146.58;100.00;69501.63;5032800;28;20104;-67
2023/06/30 03:23:34;;;;;;;10.05;4.32;;;;;;;-146.58;100.00;69501.63;5031982;28;20041;-66
2023/06/30 03:25:59;;;;;;;9.30;4.03;;;;;;;-146.58;100.00;69501.63;5032768;28;20029;-67
2023/06/30 03:28:24;;;;;;;9.90;4.80;;;;;;;-146.58;100.00;69501.63;5031552;28;20052;-66
2023/06/30 03:30:50;;;;;;;6.25;4.20;;;;;;;-146.58;100.00;69501.63;5032962;28;20503;-67
2023/06/30 03:33:15;;;;;;;14.80;5.35;;;;;;;-146.58;100.00;69501.63;5030744;28;20408;-66
2023/06/30 03:35:41;;;;;;;11.05;4.95;;;;;;;-146.58;100.00;69501.63;5032871;28;20025;-66
2023/06/30 03:38:06;;;;;;;12.30;5.70;;;;;;;-146.58;100.00;69501.63;5031445;28;20021;-66
2023/06/30 03:40:31;;;;;;;10.57;5.18;;;;;;;-146.58;100.00;69501.63;5033014;28;20025;-67
2023/06/30 03:42:57;;;;;;;5.40;3.88;;;;;;;-146.58;100.00;69501.63;5031174;28;20087;-67
2023/06/30 03:45:22;;;;;;;10.90;4.32;;;;;;;-146.58;100.00;69501.63;5032975;28;20587;-67
2023/06/30 03:47:47;;;;;;;14.43;4.25;;;;;;;-146.58;100.00;69501.63;5031437;28;20366;-67
2023/06/30 03:50:13;;;;;;;16.23;7.10;;;;;;;-146.58;100.00;69501.63;5031014;28;20072;-67
2023/06/30 03:52:38;;;;;;;11.27;5.07;;;;;;;-146.58;100.00;69501.63;5032821;28;20469;-67
2023/06/30 03:55:04;;;;;;;13.32;4.32;;;;;;;-146.58;100.00;69501.63;5030848;28;20069;-67
2023/06/30 03:57:29;;;;;;;9.00;5.13;;;;;;;-146.58;100.00;69501.63;5032523;28;20076;-67
2023/06/30 03:59:55;;;;;;;6.65;4.47;;;;;;;-146.58;100.00;69501.63;5030557;28;20041;-67
2023/06/30 04:02:20;;;;;;;11.60;5.13;;;;;;;-146.58;100.00;69501.63;5032652;28;20033;-67
2023/06/30 04:04:45;;;;;;;11.15;4.93;;;;;;;-146.58;100.00;69501.63;5030609;28;20105;-66
2023/06/30 04:07:11;;;;;;;16.75;5.70;;;;;;;-146.58;100.00;69501.63;5031834;28;20025;-67
2023/06/30 04:09:36;;;;;;;12.00;5.20;;;;;;;-146.58;100.00;69501.63;5011172;28;20046;-67
2023/06/30 04:12:01;;;;;;;15.00;6.13;;;;;;;-146.58;100.00;69501.63;5012133;28;20073;-66
2023/06/30 04:14:27;;;;;;;9.88;4.95;;;;;;;-146.58;100.00;69501.63;5029569;28;20041;-67
2023/06/30 04:16:52;;;;;;;11.27;4.90;;;;;;;-146.58;100.00;69501.63;5031629;28;20036;-68
2023/06/30 04:19:17;;;;;;;11.82;5.55;;;;;;;-146.58;100.00;69501.63;5030580;28;20523;-66
2023/06/30 04:21:43;;;;;;;6.72;4.70;;;;;;;-146.58;100.00;69501.63;5031300;28;20017;-66
2023/06/30 04:24:08;;;;;;;8.82;4.93;;;;;;;-146.58;100.00;69501.63;5030346;28;20033;-66
2023/06/30 04:26:34;;;;;;;14.35;6.50;;;;;;;-146.58;100.00;69501.63;5032247;28;20037;-65
2023/06/30 04:28:59;;;;;;;7.85;4.03;;;;;;;-146.58;100.00;69501.63;5030006;28;20037;-66
2023/06/30 04:31:26;;;;;;;24.35;5.05;;;;;;;-146.58;100.00;69501.63;5031234;28;20139;-65
2023/06/30 04:33:52;;;;;;;14.80;5.43;;;;;;;-146.58;100.00;69501.63;5030271;28;20116;-66
2023/06/30 04:36:20;;;;;;;12.80;6.50;;;;;;;-146.58;100.00;69501.63;5031717;28;20030;-66
2023/06/30 04:38:47;;;;;;;20.70;7.10;;;;;;;-146.58;100.00;69501.63;5030181;28;20132;-66
2023/06/30 04:41:12;;;;;;;8.73;4.93;;;;;;;-146.58;100.00;69501.63;5031449;28;20036;-67
2023/06/30 04:43:38;;;;;;;11.38;5.40;;;;;;;-146.58;100.00;69501.63;5029911;28;20037;-67
2023/06/30 04:46:03;;;;;;;11.10;6.07;;;;;;;-146.58;100.00;69501.63;5030280;28;20488;-67
2023/06/30 04:48:28;;;;;;;9.75;4.85;;;;;;;-146.58;100.00;69501.63;5030164;28;20122;-67
2023/06/30 04:50:54;;;;;;;13.52;5.95;;;;;;;-146.58;100.00;69501.63;5030995;28;20030;-66
2023/06/30 04:53:19;;;;;;;8.48;4.60;;;;;;;-146.58;100.00;69501.63;5030178;28;20036;-67
2023/06/30 04:55:44;;;;;;;13.00;5.00;;;;;;;-146.58;100.00;69501.63;5031684;28;20029;-65
2023/06/30 04:58:10;;;;;;;9.50;4.90;;;;;;;-146.58;100.00;69501.63;5029469;28;20033;-65
2023/06/30 05:00:35;;;;;;;9.45;4.32;;;;;;;-146.58;100.00;69501.63;5031553;28;20384;-65
2023/06/30 05:03:02;;;;;;;16.67;5.78;;;;;;;-146.58;100.00;69501.63;5029527;28;20034;-65
2023/06/30 05:05:27;;;;;;;11.00;4.80;;;;;;;-146.58;100.00;69501.63;5031151;28;20022;-67
2023/06/30 05:07:52;;;;;;;13.50;5.60;;;;;;;-146.58;100.00;69501.63;5029601;28;20040;-65
2023/06/30 05:10:18;;;;;;;7.20;4.15;;;;;;;-146.58;100.00;69501.63;5031174;28;20024;-71
2023/06/30 05:12:43;;;;;;;7.63;4.88;;;;;;;-146.58;100.00;69501.63;5030889;28;20464;-65
2023/06/30 05:15:09;;;;;;;9.48;5.05;;;;;;;-146.58;100.00;69501.63;5029583;28;20472;-65
2023/06/30 05:17:34;;;;;;;15.07;5.47;;;;;;;-146.58;100.00;69501.63;5031278;28;20072;-65
2023/06/30 05:20:04;;;;;;;13.50;5.70;;;;;;;-146.58;100.00;69501.63;5029143;28;20033;-66
2023/06/30 05:22:30;;;;;;;9.50;4.47;;;;;;;-146.58;100.00;69501.63;5031365;28;20027;-65
2023/06/30 05:24:55;;;;;;;7.38;4.07;;;;;;;-146.58;100.00;69501.63;5029419;28;20034;-66
2023/06/30 05:27:20;;;;;;;7.55;3.97;;;;;;;-146.58;100.00;69501.63;5030746;28;20026;-66
2023/06/30 05:29:46;;;;;;;9.48;5.53;;;;;;;-146.58;100.00;69501.63;5029446;28;20834;-66
2023/06/30 05:32:11;;;;;;;5.88;4.10;;;;;;;-146.58;100.00;69501.63;5030927;28;20381;-66
2023/06/30 05:34:36;;;;;;;9.10;3.00;;;;;;;-146.58;100.00;69501.63;5029019;28;20041;-66
2023/06/30 05:37:02;;;;;;;16.83;4.93;;;;;;;-146.58;100.00;69501.63;5030836;28;20022;-66
2023/06/30 05:39:27;;;;;;;8.05;3.42;;;;;;;-146.58;100.00;69501.63;5029572;28;20085;-66
2023/06/30 05:41:53;;;;;;;8.15;3.53;;;;;;;-146.58;100.00;69501.63;5029050;28;20033;-66
2023/06/30 05:44:18;;;;;;;13.38;4.28;;;;;;;-146.58;100.00;69501.63;5029536;28;20034;-66
2023/06/30 05:46:43;;;;;;;12.43;4.18;;;;;;;-146.58;100.00;69501.63;5030638;28;20025;-66
2023/06/30 05:49:09;;;;;;;7.53;5.82;;;;;;;-146.58;100.00;69501.63;5028705;28;20045;-66
2023/06/30 05:51:35;;;;;;;13.18;5.88;;;;;;;-146.58;100.00;69501.63;5030949;28;20076;-66
2023/06/30 05:54:02;;;;;;;7.97;5.00;;;;;;;-146.58;100.00;69501.63;5028814;28;20041;-66
2023/06/30 05:56:28;;;;;;;5.80;4.20;;;;;;;-146.58;100.00;69501.63;5030367;28;20096;-66
2023/06/30 05:58:53;;;;;;;9.02;4.75;;;;;;;-146.58;100.00;69501.63;5029151;28;20121;-66
2023/06/30 06:01:20;;;;;;;9.65;3.58;;;;;;;-146.58;100.00;69501.63;5030867;28;20033;-67
2023/06/30 06:03:45;;;;;;;9.57;3.15;;;;;;;-146.58;100.00;69501.63;5028457;28;20104;-64
2023/06/30 06:06:11;;;;;;;6.65;3.53;;;;;;;-146.58;100.00;69501.63;5030548;28;20037;-64
2023/06/30 06:08:39;;;;;;;5.47;4.10;;;;;;;-146.58;100.00;69501.63;5029195;28;20034;-66
2023/06/30 06:11:04;;;;;;;7.70;2.50;;;;;;;-146.58;100.00;69501.63;5028647;28;20057;-67
2023/06/30 06:13:33;;;;;;;6.47;2.70;;;;;;;-146.58;100.00;69501.63;5029080;28;20052;-66
2023/06/30 06:15:59;;;;;;;5.38;3.13;;;;;;;-146.58;100.00;69501.63;5030314;28;20091;-67
2023/06/30 06:18:25;;;;;;;7.10;2.78;;;;;;;-146.58;100.00;69501.63;5028808;28;20040;-66
2023/06/30 06:20:51;;;;;;;9.00;4.30;;;;;;;-146.58;100.00;69501.63;5030382;28;20026;-66
2023/06/30 06:23:16;;;;;;;6.93;2.65;;;;;;;-146.58;100.00;69501.63;5029120;28;20087;-67
2023/06/30 06:25:41;;;;;;;8.05;4.13;;;;;;;-146.58;100.00;69501.63;5030140;28;20476;-73
2023/06/30 06:28:07;;;;;;;8.00;2.60;;;;;;;-146.58;100.00;69501.63;5028920;28;20910;-66
2023/06/30 06:30:32;;;;;;;4.68;1.88;;;;;;;-146.58;100.00;69501.63;5030441;28;20083;-66
2023/06/30 06:32:57;;;;;;;7.38;2.92;;;;;;;-146.58;100.00;69501.63;5026928;28;20044;-67
2023/06/30 06:35:22;;;;;;;5.63;2.35;;;;;;;-146.58;100.00;69501.63;5030502;28;20489;-67
2023/06/30 06:37:48;;;;;;;7.82;2.85;;;;;;;-146.58;100.00;69501.63;5029072;28;20025;-66
2023/06/30 06:40:13;;;;;;;5.40;2.13;;;;;;;-146.58;100.00;69501.63;5030195;28;20017;-67
2023/06/30 06:42:39;;;;;;;5.95;3.38;;;;;;;-146.58;100.00;69501.63;5030348;28;20029;-66
2023/06/30 06:45:04;;;;;;;6.03;2.05;;;;;;;-146.58;100.00;69501.63;5028685;28;20033;-67
2023/06/30 06:48:07;;;;;;;10.57;1.92;;;;;;;-146.58;100.00;69501.63;5030000;28;20400;-68
2023/06/30 06:50:32;;;;;;;9.57;2.45;;;;;;;-146.58;100.00;69501.63;5009225;28;20049;-67
2023/06/30 06:52:58;;;;;;;8.82;3.05;;;;;;;-146.58;100.00;69501.63;5008844;28;20026;-67
2023/06/30 06:55:23;;;;;;;11.27;2.08;;;;;;;-146.58;100.00;69501.63;5012123;28;20034;-67
2023/06/30 06:57:48;;;;;;;9.15;2.22;;;;;;;-146.58;100.00;69501.63;5013883;28;20022;-66
2023/06/30 07:00:16;;;;;;;5.15;2.15;;;;;;;-146.58;100.00;69501.63;5032313;28;20045;-67
2023/06/30 07:02:41;;;;;;;2.73;2.37;;;;;;;-146.58;100.00;69501.63;5033442;28;20067;-67
2023/06/30 07:05:06;;;;;;;12.35;3.03;;;;;;;-146.58;100.00;69501.63;5031752;28;20555;-67
2023/06/30 07:07:32;;;;;;;7.93;2.53;;;;;;;-146.58;100.00;69501.63;5031041;28;20021;-67
2023/06/30 07:09:57;;;;;;;7.68;2.72;;;;;;;-146.58;100.00;69501.63;5030187;28;20052;-68
2023/06/30 07:12:22;;;;;;;3.75;1.90;;;;;;;-146.58;100.00;69501.63;5033434;28;20040;-68
2023/06/30 07:14:48;;;;;;;5.45;1.60;;;;;;;-146.58;100.00;69501.63;5031574;28;20037;-67
2023/06/30 07:17:13;;;;;;;6.97;2.03;;;;;;;-146.58;100.00;69501.63;5033200;28;20022;-68
2023/06/30 07:19:38;;;;;;;4.50;2.05;;;;;;;-146.58;100.00;69501.63;5016793;28;20639;-67
2023/06/30 07:22:04;;;;;;;6.50;2.47;;;;;;;-146.58;100.00;69501.63;5013282;28;20021;-67
2023/06/30 07:24:29;;;;;;;6.88;3.25;;;;;;;-146.58;100.00;69501.63;5011445;28;20038;-68
2023/06/30 07:26:55;;;;;;;3.40;2.05;;;;;;;-146.58;100.00;69501.63;5013518;28;20037;-68
2023/06/30 07:29:20;;;;;;;4.10;2.00;;;;;;;-146.58;100.00;69501.63;5011992;28;20037;-67
2023/06/30 07:31:46;;;;;;;5.90;2.08;;;;;;;-146.58;100.00;69501.63;5013125;28;20034;-67
2023/06/30 07:34:12;;;;;;;5.72;2.13;;;;;;;-146.58;100.00;69501.63;5011560;28;20444;-66
2023/06/30 07:36:37;;;;;;;5.80;2.10;;;;;;;-146.58;100.00;69501.63;5013394;28;20084;-67
2023/06/30 07:39:03;;;;;;;4.28;2.45;;;;;;;-146.58;100.00;69501.63;5011541;28;20196;-67
2023/06/30 07:41:34;;;;;;;7.57;1.98;;;;;;;-146.58;100.00;69501.63;5012936;28;20068;-67
2023/06/30 07:44:00;;;;;;;2.47;1.60;;;;;;;-146.58;100.00;69501.63;5011643;28;20038;-67
2023/06/30 07:46:25;;;;;;;12.02;4.25;;;;;;;-146.58;100.00;69501.63;5012953;28;20037;-67
2023/06/30 07:48:51;;;;;;;9.10;3.58;;;;;;;-146.58;100.00;69501.63;5019488;28;20036;-67
2023/06/30 07:51:16;;;;;;;3.95;1.73;;;;;;;-146.58;100.00;69501.63;5032724;28;20028;-68
2023/06/30 07:53:42;;;;;;;10.75;2.17;;;;;;;-146.58;100.00;69501.63;5030768;28;20448;-67
2023/06/30 07:56:07;;;;;;;9.55;2.35;;;;;;;-146.58;100.00;69501.63;5032243;28;20032;-67
2023/06/30 07:58:32;;;;;;;5.97;2.60;;;;;;;-146.58;100.00;69501.63;5031270;28;20045;-67
2023/06/30 08:00:58;;;;;;;3.42;1.20;;;;;;;-146.58;100.00;69501.63;5032392;28;20083;-68
2023/06/30 08:03:23;;;;;;;4.95;1.77;;;;;;;-146.58;100.00;69501.63;5030755;28;20041;-68
2023/06/30 08:05:48;;;;;;;6.18;1.95;;;;;;;-146.58;100.00;69501.63;5030059;28;20487;-67
2023/06/30 08:08:14;;;;;;;4.43;1.48;;;;;;;-146.58;100.00;69501.63;5030651;28;20092;-67
2023/06/30 08:10:40;;;;;;;10.43;2.92;;;;;;;-146.58;100.00;69501.63;5032022;28;20029;-67
2023/06/30 08:13:05;;;;;;;5.65;2.30;;;;;;;-146.58;100.00;69501.63;5030429;28;20021;-67
2023/06/30 08:15:31;;;;;;;8.68;2.30;;;;;;;-146.58;100.00;69501.63;5032268;28;20028;-68
2023/06/30 08:17:56;;;;;;;7.68;1.77;;;;;;;-146.58;100.00;69501.63;5030274;28;20017;-67
2023/06/30 08:20:21;;;;;;;5.43;2.05;;;;;;;-146.58;100.00;69501.63;5032272;28;20029;-67
2023/06/30 08:22:47;;;;;;;6.78;2.00;;;;;;;-146.58;100.00;69501.63;5031838;28;20032;-67
2023/06/30 08:25:12;;;;;;;4.28;1.60;;;;;;;-146.58;100.00;69501.63;5029678;28;20073;-67
2023/06/30 08:27:37;;;;;;;8.48;2.05;;;;;;;-146.58;100.00;69501.63;5032297;28;20025;-67
2023/06/30 08:30:03;;;;;;;6.93;2.38;;;;;;;-146.58;100.00;69501.63;5026439;28;20042;-67
2023/06/30 08:32:29;;;;;;;5.40;1.70;;;;;;;-146.58;100.00;69501.63;5031354;28;20476;-67
2023/06/30 08:34:54;;;;;;;8.00;1.65;;;;;;;-146.58;100.00;69501.63;5028939;28;20563;-67
2023/06/30 08:37:19;;;;;;;4.15;1.83;;;;;;;-146.58;100.00;69501.63;5031669;28;20044;-67
2023/06/30 08:39:45;;;;;;;5.72;2.33;;;;;;;-146.58;100.00;69501.63;5030060;28;20041;-67
2023/06/30 08:42:13;;;;;;;3.83;1.35;;;;;;;-146.58;100.00;69501.63;5031432;28;20026;-67
2023/06/30 08:44:39;;;;;;;;;;;;;;;-146.58;100.00;69501.63;5029092;28;20052;-66
2023/06/30 08:47:08;;;;;;;2.92;1.38;;;;;;;-146.58;100.00;69501.63;5029422;28;19913;-68
2023/06/30 08:49:33;;;;;;;;;;;;;;;-146.58;100.00;69501.63;5029966;28;20040;-69
2023/06/30 08:52:00;;;;;;;4.85;1.40;;;;;;;-146.58;100.00;69501.63;5030876;28;19909;-68
2023/06/30 08:54:28;;;;;;;4.55;1.70;;;;;;;-146.58;100.00;69501.63;5028816;28;20456;-68
2023/06/30 08:56:54;;;;;;;18.23;2.20;;;;;;;-146.58;100.00;69501.63;5031162;28;20067;-68
2023/06/30 08:59:20;;;;;;;2.75;1.50;;;;;;;-146.58;100.00;69501.63;5029220;28;20037;-68
2023/06/30 09:01:45;;;;;;;4.25;1.73;;;;;;;-146.58;100.00;69501.63;5029328;28;20072;-68
2023/06/30 09:04:12;;;;;;;3.08;1.13;;;;;;;-146.58;100.00;69501.63;5026965;28;20606;-68
2023/06/30 09:06:48;;;;;;;3.13;1.25;;;;;;;-146.58;100.00;69501.63;5030106;28;20033;-68
2023/06/30 09:09:21;;;;;;;2.08;1.52;;;;;;;-146.58;100.00;69501.63;5028975;28;20033;-68
2023/06/30 09:11:47;;;;;;;5.28;1.13;;;;;;;-146.58;100.00;69501.63;5031118;28;20037;-68
2023/06/30 09:14:14;;;;;;;3.42;1.60;;;;;;;-146.58;100.00;69501.63;5029657;28;20048;-68
2023/06/30 09:16:39;;;;;;;5.38;1.80;;;;;;;-146.58;100.00;69501.63;5030655;28;20029;-68
2023/06/30 09:19:05;;;;;;;5.95;2.63;;;;;;;-146.58;100.00;69501.63;5029272;28;20049;-68
2023/06/30 09:21:30;;;;;;;3.90;1.33;;;;;;;-146.58;100.00;69501.63;5030951;28;20155;-68
2023/06/30 09:23:56;;;;;;;6.03;1.40;;;;;;;-146.58;100.00;69501.63;5029141;28;20084;-68
2023/06/30 09:26:22;;;;;;;7.80;1.83;;;;;;;-146.58;100.00;69501.63;5030936;28;20036;-68
2023/06/30 09:28:48;;;;;;;14.65;3.72;;;;;;;-146.58;100.00;69501.63;5029216;28;20454;-68
2023/06/30 09:31:14;;;;;;;5.07;2.30;;;;;;;-146.58;100.00;69501.63;5029208;28;20056;-69
2023/06/30 09:33:40;;;;;;;5.18;2.65;;;;;;;-146.58;100.00;69501.63;5028225;28;20033;-69
2023/06/30 09:36:06;;;;;;;10.93;2.55;;;;;;;-146.58;100.00;69501.63;5029292;28;20071;-65
2023/06/30 09:38:32;;;;;;;2.42;1.25;;;;;;;-146.58;100.00;69501.63;5028124;28;20416;-66
2023/06/30 09:40:57;;;;;;;3.85;1.30;;;;;;;-146.58;100.00;69501.63;5030326;28;20021;-66
2023/06/30 09:43:24;;;;;;;3.70;1.48;;;;;;;-146.58;100.00;69501.63;5028046;28;20080;-66
2023/06/30 09:46:00;;;;;;;3.17;1.70;;;;;;;-146.58;100.00;69501.63;5029625;28;20052;-66
2023/06/30 09:48:29;;;;;;;4.65;1.75;;;;;;;-146.58;100.00;69501.63;5027512;28;20037;-66
2023/06/30 09:50:55;;;;;;;7.88;2.47;;;;;;;-146.58;100.00;69501.63;5028522;28;20026;-66
2023/06/30 09:53:21;;;;;;;9.15;1.67;;;;;;;-146.58;100.00;69501.63;5025842;28;20515;-66
2023/06/30 09:55:48;;;;;;;7.80;2.05;;;;;;;-146.58;100.00;69501.63;5029094;28;20029;-66
2023/06/30 09:58:16;;;;;;;2.25;1.48;;;;;;;-146.58;100.00;69501.63;5027269;28;20058;-66
2023/06/30 10:00:42;;;;;;;4.15;1.55;;;;;;;-146.58;100.00;69501.63;5027613;28;20444;-66
2023/06/30 10:03:08;;;;;;;4.70;1.42;;;;;;;-146.58;100.00;69501.63;5028775;28;20042;-66
2023/06/30 10:05:34;;;;;;;4.97;2.15;;;;;;;-146.58;100.00;69501.63;5030590;28;20022;-66
2023/06/30 10:08:00;;;;;;;4.97;1.73;;;;;;;-146.58;100.00;69501.63;5027692;28;20083;-66
2023/06/30 10:10:26;;;;;;;2.63;1.75;;;;;;;-146.58;100.00;69501.63;5030250;28;20029;-67
2023/06/30 10:12:52;;;;;;;3.47;1.60;;;;;;;-146.58;100.00;69501.63;5024555;28;20049;-66
2023/06/30 10:15:17;;;;;;;11.18;2.97;;;;;;;-146.58;100.00;69501.63;5029306;28;20577;-66
2023/06/30 10:17:45;;;;;;;5.97;1.55;;;;;;;-146.58;100.00;69501.63;5028900;28;20112;-66
2023/06/30 10:20:11;;;;;;;3.83;1.45;;;;;;;-146.58;100.00;69501.63;5028673;28;20041;-66
2023/06/30 10:22:37;;;;;;;8.70;2.42;;;;;;;-146.58;100.00;69501.63;5029784;28;20029;-66
2023/06/30 10:25:06;;;;;;;6.68;1.80;;;;;;;24.69;100.00;167036.06;5028799;28;20038;-66
2023/06/30 10:27:34;;;;;;;7.68;1.77;;;;;;;22.54;100.00;166467.59;5029626;28;20562;-66
2023/06/30 10:30:00;;;;;;;3.17;1.83;;;;;;;22.67;100.00;166502.97;5011218;28;20045;-66
2023/06/30 10:32:26;;;;;;;6.07;1.80;;;;;;;22.91;100.00;166565.44;5024717;28;20025;-66
2023/06/30 10:34:51;;;;;;;4.03;1.50;;;;;;;22.72;100.00;166516.53;5031970;28;20420;-66
2023/06/30 10:37:17;;;;;;;6.53;2.60;;;;;;;22.57;100.00;166475.75;5033495;28;20029;-67
2023/06/30 10:39:43;;;;;;;3.63;1.30;;;;;;;22.49;100.00;166456.75;5032401;28;20420;-66
2023/06/30 10:42:11;;;;;;;9.18;1.88;;;;;;;22.42;100.00;166437.72;5033710;28;20037;-67
2023/06/30 10:44:40;;;;;;;4.32;2.03;;;;;;;22.37;100.00;166422.72;5032260;28;20037;-66
2023/06/30 10:47:05;;;;;;;5.35;2.17;;;;;;;22.46;100.00;166447.22;5033649;28;20502;-66
2023/06/30 10:49:36;;;;;;;3.13;2.38;;;;;;;22.59;100.00;166481.22;5031984;28;20049;-67
2023/06/30 10:52:25;;;;;;;3.13;2.42;;;;;;;22.71;100.00;166513.81;5031926;28;20397;-66
2023/06/30 10:54:51;;;;;;;3.58;1.70;;;;;;;22.82;100.00;166542.34;5031946;28;20039;-66
2023/06/30 10:57:23;;;;;;;7.40;1.88;;;;;;;22.93;100.00;166572.28;5033426;28;20033;-66
2023/06/30 11:00:04;;;;;;;2.97;1.23;;;;;;;23.31;100.00;166670.19;5031705;28;20037;-66
2023/06/30 11:02:45;;;;;;;3.33;1.40;;;;;;;-146.58;100.00;69501.63;5033587;28;20025;-67